sensor_id;sensor_type;location;lat;lon;timestamp;pressure;altitude;pressure_sealevel;temperature;humidity
77725;BME280;66892;53.236;6.550;2023-05-07T00:01:17;101900.34;;;11.47;93.80
77725;BME280;66892;53.236;6.550;2023-05-07T00:03:43;101904.78;;;11.48;94.43
77725;BME280;66892;53.236;6.550;2023-05-07T00:06:09;101900.31;;;11.43;94.33
77725;BME280;66892;53.236;6.550;2023-05-07T00:08:35;101902.91;;;11.38;94.34
77725;BME280;66892;53.236;6.550;2023-05-07T00:11:02;101900.22;;;11.35;94.08
77725;BME280;66892;53.236;6.550;2023-05-07T00:13:28;101900.13;;;11.28;94.83
77725;BME280;66892;53.236;6.550;2023-05-07T00:15:56;101905.44;;;11.31;94.39
77725;BME280;66892;53.236;6.550;2023-05-07T00:18:23;101915.13;;;11.26;94.22
77725;BME280;66892;53.236;6.550;2023-05-07T00:20:49;101914.16;;;11.19;94.83
77725;BME280;66892;53.236;6.550;2023-05-07T00:23:15;101909.78;;;11.23;95.12
77725;BME280;66892;53.236;6.550;2023-05-07T00:25:41;101921.31;;;11.26;94.49
77725;BME280;66892;53.236;6.550;2023-05-07T00:28:07;101922.97;;;11.17;95.02
77725;BME280;66892;53.236;6.550;2023-05-07T00:30:33;101921.97;;;11.08;95.89
77725;BME280;66892;53.236;6.550;2023-05-07T00:32:59;101919.31;;;11.08;96.48
77725;BME280;66892;53.236;6.550;2023-05-07T00:35:28;101914.81;;;11.00;96.18
77725;BME280;66892;53.236;6.550;2023-05-07T00:37:54;101922.75;;;11.01;97.04
77725;BME280;66892;53.236;6.550;2023-05-07T00:40:20;101921.88;;;10.99;97.07
77725;BME280;66892;53.236;6.550;2023-05-07T00:42:46;101913.84;;;10.95;96.99
77725;BME280;66892;53.236;6.550;2023-05-07T00:45:12;101915.56;;;10.90;96.97
77725;BME280;66892;53.236;6.550;2023-05-07T00:47:38;101919.94;;;10.86;97.73
77725;BME280;66892;53.236;6.550;2023-05-07T00:50:06;101918.16;;;10.84;97.94
77725;BME280;66892;53.236;6.550;2023-05-07T00:52:34;101934.91;;;10.86;97.77
77725;BME280;66892;53.236;6.550;2023-05-07T00:55:01;101917.28;;;10.86;97.87
77725;BME280;66892;53.236;6.550;2023-05-07T00:57:32;101914.69;;;10.88;97.99
77725;BME280;66892;53.236;6.550;2023-05-07T00:59:59;101919.94;;;10.86;98.41
77725;BME280;66892;53.236;6.550;2023-05-07T01:02:25;101918.13;;;10.82;98.37
77725;BME280;66892;53.236;6.550;2023-05-07T01:04:52;101920.69;;;10.76;98.79
77725;BME280;66892;53.236;6.550;2023-05-07T01:07:18;101913.63;;;10.75;99.08
77725;BME280;66892;53.236;6.550;2023-05-07T01:09:45;101918.91;;;10.74;99.19
77725;BME280;66892;53.236;6.550;2023-05-07T01:12:12;101918.00;;;10.73;99.23
77725;BME280;66892;53.236;6.550;2023-05-07T01:14:38;101917.16;;;10.76;98.95
77725;BME280;66892;53.236;6.550;2023-05-07T01:17:04;101918.03;;;10.76;98.77
77725;BME280;66892;53.236;6.550;2023-05-07T01:19:31;101921.56;;;10.77;99.43
77725;BME280;66892;53.236;6.550;2023-05-07T01:22:01;101918.97;;;10.80;99.02
77725;BME280;66892;53.236;6.550;2023-05-07T01:24:31;101921.63;;;10.80;98.98
77725;BME280;66892;53.236;6.550;2023-05-07T01:26:57;101920.75;;;10.81;99.40
77725;BME280;66892;53.236;6.550;2023-05-07T01:29:23;101912.81;;;10.81;99.04
77725;BME280;66892;53.236;6.550;2023-05-07T01:31:50;101919.94;;;10.85;98.91
77725;BME280;66892;53.236;6.550;2023-05-07T01:34:18;101918.06;;;10.79;98.66
77725;BME280;66892;53.236;6.550;2023-05-07T01:36:45;101912.78;;;10.79;98.78
77725;BME280;66892;53.236;6.550;2023-05-07T01:39:12;101911.03;;;10.80;99.24
77725;BME280;66892;53.236;6.550;2023-05-07T01:41:41;101917.22;;;10.79;98.71
77725;BME280;66892;53.236;6.550;2023-05-07T01:44:08;101913.63;;;10.77;98.83
77725;BME280;66892;53.236;6.550;2023-05-07T01:46:35;101906.63;;;10.79;98.66
77725;BME280;66892;53.236;6.550;2023-05-07T01:49:01;101916.25;;;10.74;99.04
77725;BME280;66892;53.236;6.550;2023-05-07T01:51:28;101920.72;;;10.79;98.60
77725;BME280;66892;53.236;6.550;2023-05-07T01:53:54;101910.13;;;10.79;98.86
77725;BME280;66892;53.236;6.550;2023-05-07T01:56:20;101915.38;;;10.76;98.74
77725;BME280;66892;53.236;6.550;2023-05-07T01:58:48;101915.38;;;10.76;98.41
77725;BME280;66892;53.236;6.550;2023-05-07T02:01:14;101915.34;;;10.72;98.73
77725;BME280;66892;53.236;6.550;2023-05-07T02:03:40;101910.03;;;10.70;99.42
77725;BME280;66892;53.236;6.550;2023-05-07T02:06:06;101916.16;;;10.68;99.05
77725;BME280;66892;53.236;6.550;2023-05-07T02:08:32;101911.72;;;10.65;99.14
77725;BME280;66892;53.236;6.550;2023-05-07T02:10:58;101913.50;;;10.65;99.49
77725;BME280;66892;53.236;6.550;2023-05-07T02:13:26;101922.28;;;10.62;99.11
77725;BME280;66892;53.236;6.550;2023-05-07T02:15:53;101918.75;;;10.62;99.98
77725;BME280;66892;53.236;6.550;2023-05-07T02:18:20;101913.41;;;10.60;99.65
77725;BME280;66892;53.236;6.550;2023-05-07T02:20:45;101916.06;;;10.58;99.11
77725;BME280;66892;53.236;6.550;2023-05-07T02:23:11;101919.59;;;10.59;99.46
77725;BME280;66892;53.236;6.550;2023-05-07T02:25:37;101903.75;;;10.62;99.96
77725;BME280;66892;53.236;6.550;2023-05-07T02:28:04;101909.94;;;10.63;99.35
77725;BME280;66892;53.236;6.550;2023-05-07T02:30:30;101912.63;;;10.66;99.73
77725;BME280;66892;53.236;6.550;2023-05-07T02:32:57;101911.66;;;10.59;99.26
77725;BME280;66892;53.236;6.550;2023-05-07T02:35:24;101917.81;;;10.59;100.00
77725;BME280;66892;53.236;6.550;2023-05-07T02:37:50;101916.00;;;10.55;100.00
77725;BME280;66892;53.236;6.550;2023-05-07T02:40:16;101921.31;;;10.55;100.00
77725;BME280;66892;53.236;6.550;2023-05-07T02:42:42;101921.31;;;10.57;100.00
77725;BME280;66892;53.236;6.550;2023-05-07T02:45:09;101924.03;;;10.62;100.00
77725;BME280;66892;53.236;6.550;2023-05-07T02:47:35;101928.38;;;10.59;100.00
77725;BME280;66892;53.236;6.550;2023-05-07T02:50:03;101930.09;;;10.54;99.48
77725;BME280;66892;53.236;6.550;2023-05-07T02:52:29;101920.41;;;10.56;100.00
77725;BME280;66892;53.236;6.550;2023-05-07T02:54:55;101924.84;;;10.56;100.00
77725;BME280;66892;53.236;6.550;2023-05-07T02:57:21;101920.41;;;10.56;99.89
77725;BME280;66892;53.236;6.550;2023-05-07T02:59:47;101918.69;;;10.58;100.00
77725;BME280;66892;53.236;6.550;2023-05-07T03:02:13;101921.31;;;10.55;100.00
77725;BME280;66892;53.236;6.550;2023-05-07T03:04:39;101915.97;;;10.52;99.87
77725;BME280;66892;53.236;6.550;2023-05-07T03:07:07;101917.72;;;10.53;100.00
77725;BME280;66892;53.236;6.550;2023-05-07T03:09:33;101915.03;;;10.50;100.00
77725;BME280;66892;53.236;6.550;2023-05-07T03:11:59;101910.59;;;10.48;100.00
77725;BME280;66892;53.236;6.550;2023-05-07T03:14:25;101916.78;;;10.50;99.92
77725;BME280;66892;53.236;6.550;2023-05-07T03:16:51;101919.44;;;10.50;99.70
77725;BME280;66892;53.236;6.550;2023-05-07T03:19:17;101918.50;;;10.43;99.75
77725;BME280;66892;53.236;6.550;2023-05-07T03:21:43;101912.34;;;10.46;99.80
77725;BME280;66892;53.236;6.550;2023-05-07T03:24:10;101914.88;;;10.38;99.83
77725;BME280;66892;53.236;6.550;2023-05-07T03:26:36;101914.88;;;10.37;99.50
77725;BME280;66892;53.236;6.550;2023-05-07T03:29:02;101913.94;;;10.33;100.00
77725;BME280;66892;53.236;6.550;2023-05-07T03:31:28;101912.22;;;10.38;100.00
77725;BME280;66892;53.236;6.550;2023-05-07T03:33:56;101907.78;;;10.36;100.00
77725;BME280;66892;53.236;6.550;2023-05-07T03:36:22;101910.44;;;10.36;100.00
77725;BME280;66892;53.236;6.550;2023-05-07T03:38:49;101906.09;;;10.39;100.00
77725;BME280;66892;53.236;6.550;2023-05-07T03:41:17;101909.53;;;10.35;99.37
77725;BME280;66892;53.236;6.550;2023-05-07T03:43:43;101901.53;;;10.31;99.68
77725;BME280;66892;53.236;6.550;2023-05-07T03:46:09;101908.47;;;10.23;99.01
77725;BME280;66892;53.236;6.550;2023-05-07T03:48:35;101909.41;;;10.28;99.59
77725;BME280;66892;53.236;6.550;2023-05-07T03:51:01;101907.66;;;10.27;100.00
77725;BME280;66892;53.236;6.550;2023-05-07T03:53:27;101905.91;;;10.27;99.84
77725;BME280;66892;53.236;6.550;2023-05-07T03:55:53;101915.50;;;10.21;99.23
77725;BME280;66892;53.236;6.550;2023-05-07T03:58:20;101919.13;;;10.27;99.73
77725;BME280;66892;53.236;6.550;2023-05-07T04:00:46;101914.66;;;10.25;98.80
77725;BME280;66892;53.236;6.550;2023-05-07T04:03:12;101928.72;;;10.21;99.53
77725;BME280;66892;53.236;6.550;2023-05-07T04:05:38;101925.19;;;10.22;99.25
77725;BME280;66892;53.236;6.550;2023-05-07T04:08:04;101938.44;;;10.25;99.75
77725;BME280;66892;53.236;6.550;2023-05-07T04:10:31;101936.69;;;10.25;100.00
77725;BME280;66892;53.236;6.550;2023-05-07T04:12:57;101934.00;;;10.22;99.51
77725;BME280;66892;53.236;6.550;2023-05-07T04:15:24;101946.34;;;10.20;100.00
77725;BME280;66892;53.236;6.550;2023-05-07T04:17:50;101948.97;;;10.22;100.00
77725;BME280;66892;53.236;6.550;2023-05-07T04:20:17;101937.50;;;10.21;100.00
77725;BME280;66892;53.236;6.550;2023-05-07T04:22:43;101937.47;;;10.18;99.29
77725;BME280;66892;53.236;6.550;2023-05-07T04:25:09;101940.06;;;10.15;99.67
77725;BME280;66892;53.236;6.550;2023-05-07T04:27:35;101957.63;;;10.13;99.33
77725;BME280;66892;53.236;6.550;2023-05-07T04:30:02;101953.28;;;10.14;100.00
77725;BME280;66892;53.236;6.550;2023-05-07T04:32:29;101955.06;;;10.16;99.39
77725;BME280;66892;53.236;6.550;2023-05-07T04:34:55;101947.00;;;10.10;99.37
77725;BME280;66892;53.236;6.550;2023-05-07T04:37:21;101949.66;;;10.10;98.57
77725;BME280;66892;53.236;6.550;2023-05-07T04:39:48;101942.56;;;10.07;99.11
77725;BME280;66892;53.236;6.550;2023-05-07T04:42:14;101942.56;;;10.09;99.42
77725;BME280;66892;53.236;6.550;2023-05-07T04:44:41;101952.25;;;10.08;98.60
77725;BME280;66892;53.236;6.550;2023-05-07T04:47:07;101940.81;;;10.08;98.68
77725;BME280;66892;53.236;6.550;2023-05-07T04:49:34;101948.66;;;10.05;98.60
77725;BME280;66892;53.236;6.550;2023-05-07T04:52:00;101948.66;;;10.05;98.64
77725;BME280;66892;53.236;6.550;2023-05-07T04:54:26;101946.91;;;10.05;98.99
77725;BME280;66892;53.236;6.550;2023-05-07T04:56:52;101953.94;;;10.05;98.88
77725;BME280;66892;53.236;6.550;2023-05-07T04:59:18;101948.72;;;10.06;98.32
77725;BME280;66892;53.236;6.550;2023-05-07T05:01:45;101950.50;;;10.07;97.64
77725;BME280;66892;53.236;6.550;2023-05-07T05:04:11;101956.63;;;10.06;98.08
77725;BME280;66892;53.236;6.550;2023-05-07T05:06:38;101951.31;;;10.05;97.95
77725;BME280;66892;53.236;6.550;2023-05-07T05:09:04;101957.50;;;10.05;97.51
77725;BME280;66892;53.236;6.550;2023-05-07T05:11:30;101956.63;;;10.06;97.48
77725;BME280;66892;53.236;6.550;2023-05-07T05:13:56;101954.91;;;10.08;97.50
77725;BME280;66892;53.236;6.550;2023-05-07T05:16:22;101955.84;;;10.11;97.14
77725;BME280;66892;53.236;6.550;2023-05-07T05:18:48;101952.25;;;10.08;97.55
77725;BME280;66892;53.236;6.550;2023-05-07T05:21:14;101963.66;;;10.04;96.79
77725;BME280;66892;53.236;6.550;2023-05-07T05:23:42;101956.69;;;10.08;97.13
77725;BME280;66892;53.236;6.550;2023-05-07T05:26:08;101966.34;;;10.07;97.62
77725;BME280;66892;53.236;6.550;2023-05-07T05:28:34;101967.31;;;10.13;97.80
77725;BME280;66892;53.236;6.550;2023-05-07T05:31:00;101974.34;;;10.11;97.10
77725;BME280;66892;53.236;6.550;2023-05-07T05:33:26;101980.47;;;10.10;97.41
77725;BME280;66892;53.236;6.550;2023-05-07T05:35:53;101990.28;;;10.14;97.69
77725;BME280;66892;53.236;6.550;2023-05-07T05:38:19;101998.25;;;10.17;97.23
77725;BME280;66892;53.236;6.550;2023-05-07T05:40:47;101991.22;;;10.17;97.25
77725;BME280;66892;53.236;6.550;2023-05-07T05:43:14;101995.63;;;10.18;96.37
77725;BME280;66892;53.236;6.550;2023-05-07T05:45:40;101992.06;;;10.16;97.37
77725;BME280;66892;53.236;6.550;2023-05-07T05:48:06;101998.25;;;10.18;96.67
77725;BME280;66892;53.236;6.550;2023-05-07T05:50:32;101998.13;;;10.11;96.50
77725;BME280;66892;53.236;6.550;2023-05-07T05:52:58;102002.50;;;10.10;96.35
77725;BME280;66892;53.236;6.550;2023-05-07T05:55:24;102000.78;;;10.12;97.08
77725;BME280;66892;53.236;6.550;2023-05-07T05:57:51;102002.41;;;10.05;96.39
77725;BME280;66892;53.236;6.550;2023-05-07T06:00:18;102000.72;;;10.07;95.65
77725;BME280;66892;53.236;6.550;2023-05-07T06:02:44;101994.53;;;10.07;95.81
77725;BME280;66892;53.236;6.550;2023-05-07T06:05:10;101988.41;;;10.08;96.29
77725;BME280;66892;53.236;6.550;2023-05-07T06:07:36;101984.88;;;10.09;95.58
77725;BME280;66892;53.236;6.550;2023-05-07T06:10:02;101976.94;;;10.09;96.13
77725;BME280;66892;53.236;6.550;2023-05-07T06:12:28;101985.13;;;10.23;95.32
77725;BME280;66892;53.236;6.550;2023-05-07T06:14:56;101982.50;;;10.23;96.03
77725;BME280;66892;53.236;6.550;2023-05-07T06:17:22;101984.28;;;10.25;95.11
77725;BME280;66892;53.236;6.550;2023-05-07T06:19:48;101990.50;;;10.27;94.76
77725;BME280;66892;53.236;6.550;2023-05-07T06:22:14;101985.13;;;10.24;95.06
77725;BME280;66892;53.236;6.550;2023-05-07T06:24:40;101997.59;;;10.30;94.80
77725;BME280;66892;53.236;6.550;2023-05-07T06:27:06;101995.72;;;10.24;95.25
77725;BME280;66892;53.236;6.550;2023-05-07T06:29:32;101982.72;;;10.36;94.89
77725;BME280;66892;53.236;6.550;2023-05-07T06:32:07;101993.34;;;10.39;94.17
77725;BME280;66892;53.236;6.550;2023-05-07T06:34:33;101999.63;;;10.47;94.58
77725;BME280;66892;53.236;6.550;2023-05-07T06:36:59;101999.53;;;10.40;93.96
77725;BME280;66892;53.236;6.550;2023-05-07T06:39:25;102007.56;;;10.47;94.38
77725;BME280;66892;53.236;6.550;2023-05-07T06:41:51;102005.63;;;10.36;93.75
77725;BME280;66892;53.236;6.550;2023-05-07T06:44:17;102017.13;;;10.39;93.50
77725;BME280;66892;53.236;6.550;2023-05-07T06:46:44;102011.91;;;10.42;93.47
77725;BME280;66892;53.236;6.550;2023-05-07T06:49:12;102021.91;;;10.62;94.11
77725;BME280;66892;53.236;6.550;2023-05-07T06:51:38;102015.66;;;10.59;92.74
77725;BME280;66892;53.236;6.550;2023-05-07T06:54:04;102009.31;;;10.47;93.00
77725;BME280;66892;53.236;6.550;2023-05-07T06:56:30;102011.00;;;10.42;93.12
77725;BME280;66892;53.236;6.550;2023-05-07T06:58:56;102023.47;;;10.49;93.09
77725;BME280;66892;53.236;6.550;2023-05-07T07:01:22;102026.19;;;10.55;93.16
77725;BME280;66892;53.236;6.550;2023-05-07T07:03:48;102029.81;;;10.62;92.62
77725;BME280;66892;53.236;6.550;2023-05-07T07:06:16;102031.56;;;10.61;92.43
77725;BME280;66892;53.236;6.550;2023-05-07T07:08:42;102037.81;;;10.65;92.71
77725;BME280;66892;53.236;6.550;2023-05-07T07:11:08;102037.69;;;10.55;91.91
77725;BME280;66892;53.236;6.550;2023-05-07T07:13:34;102050.84;;;10.52;92.83
77725;BME280;66892;53.236;6.550;2023-05-07T07:16:00;102052.47;;;10.44;93.02
77725;BME280;66892;53.236;6.550;2023-05-07T07:18:26;102056.00;;;10.45;92.67
77725;BME280;66892;53.236;6.550;2023-05-07T07:20:53;102057.81;;;10.47;93.32
77725;BME280;66892;53.236;6.550;2023-05-07T07:23:20;102058.56;;;10.40;92.08
77725;BME280;66892;53.236;6.550;2023-05-07T07:25:46;102053.25;;;10.39;92.53
77725;BME280;66892;53.236;6.550;2023-05-07T07:28:12;102058.50;;;10.37;93.47
77725;BME280;66892;53.236;6.550;2023-05-07T07:30:39;102052.50;;;10.47;92.82
77725;BME280;66892;53.236;6.550;2023-05-07T07:33:05;102051.56;;;10.44;92.74
77725;BME280;66892;53.236;6.550;2023-05-07T07:35:31;102046.22;;;10.41;92.63
77725;BME280;66892;53.236;6.550;2023-05-07T07:37:57;102050.72;;;10.43;92.26
77725;BME280;66892;53.236;6.550;2023-05-07T07:40:25;102047.97;;;10.40;92.19
77725;BME280;66892;53.236;6.550;2023-05-07T07:42:51;102051.56;;;10.44;92.82
77725;BME280;66892;53.236;6.550;2023-05-07T07:45:17;102046.63;;;10.65;92.14
77725;BME280;66892;53.236;6.550;2023-05-07T07:47:43;102057.13;;;10.59;91.87
77725;BME280;66892;53.236;6.550;2023-05-07T07:50:10;102056.28;;;10.62;91.70
77725;BME280;66892;53.236;6.550;2023-05-07T07:52:36;102058.13;;;10.66;91.71
77725;BME280;66892;53.236;6.550;2023-05-07T07:55:02;102057.28;;;10.70;91.85
77725;BME280;66892;53.236;6.550;2023-05-07T07:57:30;102059.16;;;10.75;91.51
77725;BME280;66892;53.236;6.550;2023-05-07T07:59:56;102056.66;;;10.86;91.27
77725;BME280;66892;53.236;6.550;2023-05-07T08:02:22;102052.31;;;10.91;91.14
77725;BME280;66892;53.236;6.550;2023-05-07T08:04:48;102047.97;;;10.96;90.58
77725;BME280;66892;53.236;6.550;2023-05-07T08:07:14;102056.94;;;11.04;89.57
77725;BME280;66892;53.236;6.550;2023-05-07T08:09:40;102056.97;;;11.07;90.32
77725;BME280;66892;53.236;6.550;2023-05-07T08:12:07;102051.81;;;11.18;90.11
77725;BME280;66892;53.236;6.550;2023-05-07T08:14:34;102054.44;;;11.16;88.96
77725;BME280;66892;53.236;6.550;2023-05-07T08:17:02;102049.13;;;11.15;88.90
77725;BME280;66892;53.236;6.550;2023-05-07T08:19:28;102047.34;;;11.15;89.58
77725;BME280;66892;53.236;6.550;2023-05-07T08:21:54;102051.03;;;11.25;89.11
77725;BME280;66892;53.236;6.550;2023-05-07T08:24:21;102044.72;;;11.14;88.63
77725;BME280;66892;53.236;6.550;2023-05-07T08:26:47;102051.91;;;11.25;88.62
77725;BME280;66892;53.236;6.550;2023-05-07T08:29:13;102053.84;;;11.38;88.28
77725;BME280;66892;53.236;6.550;2023-05-07T08:31:40;102060.94;;;11.41;88.51
77725;BME280;66892;53.236;6.550;2023-05-07T08:34:06;102057.44;;;11.43;88.25
77725;BME280;66892;53.236;6.550;2023-05-07T08:36:33;102053.03;;;11.44;87.90
77725;BME280;66892;53.236;6.550;2023-05-07T08:38:59;102054.28;;;11.70;86.86
77725;BME280;66892;53.236;6.550;2023-05-07T08:41:25;102054.44;;;11.85;86.71
77725;BME280;66892;53.236;6.550;2023-05-07T08:43:51;102067.69;;;11.85;85.82
77725;BME280;66892;53.236;6.550;2023-05-07T08:46:19;102066.03;;;11.98;86.47
77725;BME280;66892;53.236;6.550;2023-05-07T08:48:47;102061.59;;;11.91;86.22
77725;BME280;66892;53.236;6.550;2023-05-07T08:51:15;102067.03;;;12.06;85.44
77725;BME280;66892;53.236;6.550;2023-05-07T08:53:42;102074.19;;;12.14;84.71
77725;BME280;66892;53.236;6.550;2023-05-07T08:56:08;102075.94;;;12.14;84.28
77725;BME280;66892;53.236;6.550;2023-05-07T08:58:35;102071.63;;;12.27;84.07
77725;BME280;66892;53.236;6.550;2023-05-07T09:01:03;102070.00;;;12.39;84.18
77725;BME280;66892;53.236;6.550;2023-05-07T09:03:31;102070.00;;;12.39;83.94
77725;BME280;66892;53.236;6.550;2023-05-07T09:05:58;102074.34;;;12.31;83.21
77725;BME280;66892;53.236;6.550;2023-05-07T09:08:25;102065.53;;;12.34;84.67
77725;BME280;66892;53.236;6.550;2023-05-07T09:10:52;102064.03;;;12.64;83.44
77725;BME280;66892;53.236;6.550;2023-05-07T09:13:18;102068.56;;;12.81;83.42
77725;BME280;66892;53.236;6.550;2023-05-07T09:15:44;102070.41;;;12.92;82.49
77725;BME280;66892;53.236;6.550;2023-05-07T09:18:10;102071.31;;;12.97;81.49
77725;BME280;66892;53.236;6.550;2023-05-07T09:20:36;102079.19;;;12.81;81.62
77725;BME280;66892;53.236;6.550;2023-05-07T09:23:03;102065.19;;;13.06;80.89
77725;BME280;66892;53.236;6.550;2023-05-07T09:25:30;102067.03;;;13.11;80.81
77725;BME280;66892;53.236;6.550;2023-05-07T09:27:57;102074.31;;;13.53;80.84
77725;BME280;66892;53.236;6.550;2023-05-07T09:30:27;102073.28;;;13.21;80.13
77725;BME280;66892;53.236;6.550;2023-05-07T09:32:53;102081.28;;;13.30;80.48
77725;BME280;66892;53.236;6.550;2023-05-07T09:35:19;102062.75;;;13.41;80.10
77725;BME280;66892;53.236;6.550;2023-05-07T09:37:47;102070.72;;;13.38;78.66
77725;BME280;66892;53.236;6.550;2023-05-07T09:40:22;102067.19;;;13.46;79.77
77725;BME280;66892;53.236;6.550;2023-05-07T09:42:48;102058.41;;;13.58;78.99
77725;BME280;66892;53.236;6.550;2023-05-07T09:45:15;102068.13;;;13.56;78.07
77725;BME280;66892;53.236;6.550;2023-05-07T09:47:42;102074.38;;;13.71;77.61
77725;BME280;66892;53.236;6.550;2023-05-07T09:50:11;102063.88;;;14.26;77.90
77725;BME280;66892;53.236;6.550;2023-05-07T09:52:39;102063.00;;;14.21;76.84
77725;BME280;66892;53.236;6.550;2023-05-07T09:55:07;102051.47;;;14.33;75.95
77725;BME280;66892;53.236;6.550;2023-05-07T09:57:36;102054.97;;;14.07;75.69
77725;BME280;66892;53.236;6.550;2023-05-07T10:00:03;102051.44;;;14.16;77.49
77725;BME280;66892;53.236;6.550;2023-05-07T10:02:35;102057.66;;;14.16;77.14
77725;BME280;66892;53.236;6.550;2023-05-07T10:05:02;102053.25;;;14.21;75.65
77725;BME280;66892;53.236;6.550;2023-05-07T10:07:29;102059.47;;;14.67;75.03
77725;BME280;66892;53.236;6.550;2023-05-07T10:09:55;102056.81;;;14.36;75.66
77725;BME280;66892;53.236;6.550;2023-05-07T10:12:22;102064.81;;;14.34;75.57
77725;BME280;66892;53.236;6.550;2023-05-07T10:14:51;102066.59;;;14.50;75.56
77725;BME280;66892;53.236;6.550;2023-05-07T10:17:19;102064.75;;;14.05;76.25
77725;BME280;66892;53.236;6.550;2023-05-07T10:19:46;102065.66;;;14.30;77.57
77725;BME280;66892;53.236;6.550;2023-05-07T10:22:13;102071.03;;;14.54;76.66
77725;BME280;66892;53.236;6.550;2023-05-07T10:24:41;102071.03;;;14.69;76.53
77725;BME280;66892;53.236;6.550;2023-05-07T10:27:11;102072.78;;;14.81;76.69
77725;BME280;66892;53.236;6.550;2023-05-07T10:29:44;102071.00;;;14.86;75.01
77725;BME280;66892;53.236;6.550;2023-05-07T10:32:31;102076.34;;;14.47;74.30
77725;BME280;66892;53.236;6.550;2023-05-07T10:35:01;102071.84;;;14.23;75.17
77725;BME280;66892;53.236;6.550;2023-05-07T10:37:28;102075.38;;;14.13;75.50
77725;BME280;66892;53.236;6.550;2023-05-07T10:39:55;102076.25;;;14.07;76.26
77725;BME280;66892;53.236;6.550;2023-05-07T10:42:21;102078.09;;;14.28;76.19
77725;BME280;66892;53.236;6.550;2023-05-07T10:44:47;102078.06;;;14.23;76.86
77725;BME280;66892;53.236;6.550;2023-05-07T10:47:17;102077.19;;;14.27;76.21
77725;BME280;66892;53.236;6.550;2023-05-07T10:50:21;102083.44;;;14.80;74.46
77725;BME280;66892;53.236;6.550;2023-05-07T10:55:50;102079.81;;;15.12;72.54
77725;BME280;66892;53.236;6.550;2023-05-07T10:58:23;102085.06;;;15.43;71.49
77725;BME280;66892;53.236;6.550;2023-05-07T11:00:56;102072.53;;;15.70;70.94
77725;BME280;66892;53.236;6.550;2023-05-07T11:03:24;102062.56;;;16.06;68.60
77725;BME280;66892;53.236;6.550;2023-05-07T11:06:09;102078.34;;;16.44;69.11
77725;BME280;66892;53.236;6.550;2023-05-07T11:08:53;102070.19;;;16.62;68.78
77725;BME280;66892;53.236;6.550;2023-05-07T11:11:44;102063.00;;;17.51;65.23
77725;BME280;66892;53.236;6.550;2023-05-07T11:14:10;102058.75;;;18.61;61.70
77725;BME280;66892;53.236;6.550;2023-05-07T11:16:36;102064.53;;;18.34;62.51
77725;BME280;66892;53.236;6.550;2023-05-07T11:19:04;102046.47;;;17.92;62.38
77725;BME280;66892;53.236;6.550;2023-05-07T11:21:35;102057.16;;;17.88;63.71
77725;BME280;66892;53.236;6.550;2023-05-07T11:24:02;102060.75;;;17.16;64.75
77725;BME280;66892;53.236;6.550;2023-05-07T11:26:31;102056.16;;;17.30;65.12
77725;BME280;66892;53.236;6.550;2023-05-07T11:28:57;102041.91;;;17.97;62.03
77725;BME280;66892;53.236;6.550;2023-05-07T11:31:27;102050.97;;;17.86;63.52
77725;BME280;66892;53.236;6.550;2023-05-07T11:33:54;102057.94;;;18.56;61.43
77725;BME280;66892;53.236;6.550;2023-05-07T11:36:23;102058.53;;;19.22;58.15
77725;BME280;66892;53.236;6.550;2023-05-07T11:38:49;102064.38;;;17.85;62.98
77725;BME280;66892;53.236;6.550;2023-05-07T11:41:16;102065.84;;;18.06;62.56
77725;BME280;66892;53.236;6.550;2023-05-07T11:43:56;102070.16;;;17.47;63.00
77725;BME280;66892;53.236;6.550;2023-05-07T11:46:23;102059.91;;;17.85;62.91
77725;BME280;66892;53.236;6.550;2023-05-07T11:48:49;102066.41;;;17.68;62.79
77725;BME280;66892;53.236;6.550;2023-05-07T11:51:19;102061.06;;;18.82;61.10
77725;BME280;66892;53.236;6.550;2023-05-07T11:53:46;102074.34;;;19.36;57.82
77725;BME280;66892;53.236;6.550;2023-05-07T11:56:15;102063.66;;;19.33;59.61
77725;BME280;66892;53.236;6.550;2023-05-07T11:58:42;102068.84;;;19.85;59.00
77725;BME280;66892;53.236;6.550;2023-05-07T12:01:09;102074.91;;;20.34;55.32
77725;BME280;66892;53.236;6.550;2023-05-07T12:03:35;102065.41;;;20.18;55.52
77725;BME280;66892;53.236;6.550;2023-05-07T12:06:05;102068.84;;;20.25;54.99
77725;BME280;66892;53.236;6.550;2023-05-07T12:08:32;102069.88;;;21.54;52.94
77725;BME280;66892;53.236;6.550;2023-05-07T12:10:59;102077.56;;;21.68;51.23
77725;BME280;66892;53.236;6.550;2023-05-07T12:13:25;102086.38;;;20.76;52.66
77725;BME280;66892;53.236;6.550;2023-05-07T12:15:52;102076.03;;;21.90;51.78
77725;BME280;66892;53.236;6.550;2023-05-07T12:18:18;102074.59;;;23.15;47.87
77725;BME280;66892;53.236;6.550;2023-05-07T12:20:45;102068.94;;;22.43;48.11
77725;BME280;66892;53.236;6.550;2023-05-07T12:23:12;102080.72;;;20.15;54.67
77725;BME280;66892;53.236;6.550;2023-05-07T12:25:39;102081.81;;;20.44;55.02
77725;BME280;66892;53.236;6.550;2023-05-07T12:28:12;102078.69;;;19.84;58.38
77725;BME280;66892;53.236;6.550;2023-05-07T12:30:38;102084.34;;;19.72;56.25
77725;BME280;66892;53.236;6.550;2023-05-07T12:33:04;102085.38;;;18.70;59.11
77725;BME280;66892;53.236;6.550;2023-05-07T12:35:32;102070.50;;;19.49;59.20
77725;BME280;66892;53.236;6.550;2023-05-07T12:37:59;102070.72;;;19.37;57.90
77725;BME280;66892;53.236;6.550;2023-05-07T12:40:35;102077.81;;;19.39;57.11
77725;BME280;66892;53.236;6.550;2023-05-07T12:43:01;102077.19;;;19.27;57.46
77725;BME280;66892;53.236;6.550;2023-05-07T12:45:29;102079.56;;;18.96;58.95
77725;BME280;66892;53.236;6.550;2023-05-07T12:47:56;102081.34;;;19.44;59.86
77725;BME280;66892;53.236;6.550;2023-05-07T12:50:22;102081.06;;;19.58;57.87
77725;BME280;66892;53.236;6.550;2023-05-07T12:52:48;102083.31;;;20.19;57.27